Time;durP1;ratioP1;P1;durP2;ratioP2;P2;SDS_P1;SDS_P2;PMS_P1;PMS_P2;Temp;Humidity;BMP_temperature;BMP_pressure;BME280_temperature;BME280_humidity;BME280_pressure;Samples;Min_cycle;Max_cycle;Signal;HPM_P1;HPM_P2
2023/01/22 00:01:02;;;;;;;22.80;8.68;;;;;;;-1.42;76.71;102006.09;4952490;28;20086;-45
2023/01/22 00:03:29;;;;;;;22.25;9.70;;;;;;;-1.46;76.54;102004.06;4951389;28;20403;-45
2023/01/22 00:05:55;;;;;;;22.35;8.23;;;;;;;-1.51;76.33;102000.28;4956263;28;20066;-45
2023/01/22 00:08:22;;;;;;;23.65;9.80;;;;;;;-1.58;75.59;102009.97;4947852;28;20743;-45
2023/01/22 00:10:50;;;;;;;23.25;8.85;;;;;;;-1.62;75.40;101999.47;4950921;28;20070;-44
2023/01/22 00:13:19;;;;;;;20.42;7.60;;;;;;;-1.65;75.89;102002.66;4951483;28;20085;-44
2023/01/22 00:15:45;;;;;;;23.10;8.32;;;;;;;-1.64;76.53;102001.88;4951260;28;20051;-43
2023/01/22 00:18:13;;;;;;;32.65;11.75;;;;;;;-1.62;76.62;101996.94;4950127;28;20069;-44
2023/01/22 00:20:39;;;;;;;25.90;9.23;;;;;;;-1.61;76.63;101997.03;4945277;28;20082;-44
2023/01/22 00:23:07;;;;;;;28.73;10.80;;;;;;;-1.57;76.06;101995.63;4951085;28;20277;-46
2023/01/22 00:25:33;;;;;;;25.30;10.52;;;;;;;-1.57;76.34;101996.53;4948638;28;20138;-46
2023/01/22 00:28:00;;;;;;;27.48;9.10;;;;;;;-1.56;76.13;101995.75;4950738;28;20075;-45
2023/01/22 00:30:27;;;;;;;23.88;9.93;;;;;;;-1.56;76.14;101993.19;4950993;28;20059;-45
2023/01/22 00:32:53;;;;;;;23.70;9.57;;;;;;;-1.53;76.14;101991.69;4949743;28;20043;-45
2023/01/22 00:35:20;;;;;;;24.30;8.65;;;;;;;-1.53;76.22;101989.13;4945315;28;20055;-45
2023/01/22 00:37:47;;;;;;;23.45;10.88;;;;;;;-1.56;76.39;101988.13;4950325;28;20078;-44
2023/01/22 00:40:14;;;;;;;29.88;10.25;;;;;;;-1.58;76.58;101984.56;4948896;28;20058;-44
2023/01/22 00:42:42;;;;;;;24.35;8.52;;;;;;;-1.60;75.92;101988.66;4945337;28;20468;-45
2023/01/22 00:45:11;;;;;;;20.25;8.10;;;;;;;-1.62;75.93;101977.47;4949453;28;20734;-44
2023/01/22 00:47:38;;;;;;;25.63;10.80;;;;;;;-1.65;75.71;101982.31;4950419;28;20070;-43
2023/01/22 00:50:05;;;;;;;22.60;7.65;;;;;;;-1.67;76.01;101981.31;4949923;28;20105;-45
2023/01/22 00:52:32;;;;;;;20.55;7.55;;;;;;;-1.70;76.08;101974.34;4954020;28;20111;-44
2023/01/22 00:54:58;;;;;;;25.23;8.70;;;;;;;-1.69;75.98;101975.22;4958031;28;20050;-44
2023/01/22 00:57:25;;;;;;;19.98;7.55;;;;;;;-1.68;76.36;101982.09;4950119;28;20105;-45
2023/01/22 00:59:52;;;;;;;22.67;7.25;;;;;;;-1.68;76.04;101982.09;4961902;28;20630;-44
2023/01/22 01:02:18;;;;;;;25.25;10.20;;;;;;;-1.69;76.27;101990.47;4955773;28;20043;-43
2023/01/22 01:04:45;;;;;;;22.05;10.13;;;;;;;-1.73;76.35;101978.28;4951100;28;20411;-44
2023/01/22 01:07:12;;;;;;;24.05;11.00;;;;;;;-1.73;75.87;101978.28;4958126;28;20573;-44
2023/01/22 01:09:38;;;;;;;31.42;8.68;;;;;;;-1.76;75.39;101978.06;4961622;28;20709;-44
2023/01/22 01:12:07;;;;;;;20.30;10.15;;;;;;;-1.80;76.39;101982.00;4947446;28;20463;-44
2023/01/22 01:14:34;;;;;;;26.98;8.60;;;;;;;-1.82;75.75;101989.50;4952228;28;20047;-46
2023/01/22 01:17:01;;;;;;;30.75;9.20;;;;;;;-1.85;76.05;101984.19;4956759;28;20666;-44
2023/01/22 01:19:27;;;;;;;37.42;13.27;;;;;;;-1.87;75.52;101985.72;4957437;28;20062;-45
2023/01/22 01:21:54;;;;;;;28.58;10.52;;;;;;;-1.88;76.19;101981.41;4960963;28;20495;-45
2023/01/22 01:24:21;;;;;;;27.90;10.15;;;;;;;-1.89;75.98;101989.75;4957314;28;20078;-45
2023/01/22 01:26:47;;;;;;;28.05;12.27;;;;;;;-1.90;76.13;101990.53;4956565;28;20113;-45
2023/01/22 01:29:14;;;;;;;33.58;10.18;;;;;;;-1.93;76.48;101985.22;4952364;28;20071;-46
2023/01/22 01:31:41;;;;;;;25.77;10.68;;;;;;;-1.92;76.29;101981.91;4953889;28;20047;-45
2023/01/22 01:34:08;;;;;;;25.90;8.88;;;;;;;-1.94;75.79;101978.34;4954560;28;20051;-45
2023/01/22 01:36:34;;;;;;;22.30;7.30;;;;;;;-1.95;75.93;101986.75;4966116;28;20659;-44
2023/01/22 01:39:15;;;;;;;23.80;8.73;;;;;;;-1.97;76.03;101990.81;4962837;28;20078;-44
2023/01/22 01:41:41;;;;;;;25.70;8.57;;;;;;;-2.01;76.34;101991.31;4952540;28;20093;-44
2023/01/22 01:44:13;;;;;;;22.55;7.60;;;;;;;-2.05;76.12;101985.13;4956602;28;20106;-43
2023/01/22 01:46:46;;;;;;;17.88;7.88;;;;;;;-2.09;76.29;101978.91;4964071;28;20053;-45
2023/01/22 01:49:21;;;;;;;16.95;6.63;;;;;;;-2.11;75.53;101988.06;4955661;28;20139;-44
2023/01/22 01:51:48;;;;;;;18.98;7.32;;;;;;;-2.13;75.42;101987.03;4963825;28;20509;-44
2023/01/22 01:54:16;;;;;;;18.92;7.65;;;;;;;-2.16;75.46;101986.78;4960685;28;20079;-45
2023/01/22 01:56:48;;;;;;;18.80;7.53;;;;;;;-2.14;76.14;101980.19;4964298;28;20047;-45
2023/01/22 01:59:17;;;;;;;25.38;7.43;;;;;;;-2.14;75.26;101990.34;4954435;28;20070;-46
2023/01/22 02:01:48;;;;;;;23.30;7.63;;;;;;;-2.16;75.71;101986.78;4962391;28;20092;-45
2023/01/22 02:04:15;;;;;;;21.85;8.52;;;;;;;-2.16;76.60;101984.25;4960491;28;20051;-45
2023/01/22 02:06:42;;;;;;;23.48;9.05;;;;;;;-2.18;75.86;101980.72;4969180;28;20074;-45
2023/01/22 02:09:09;;;;;;;21.63;7.35;;;;;;;-2.18;76.38;101983.25;4961160;28;20085;-45
2023/01/22 02:11:36;;;;;;;18.33;7.15;;;;;;;-2.20;76.10;101984.75;4953604;28;20272;-45
2023/01/22 02:14:07;;;;;;;19.17;7.45;;;;;;;-2.20;76.80;101969.53;4958830;28;20586;-46
2023/01/22 02:16:33;;;;;;;21.92;8.13;;;;;;;-2.23;76.24;101979.47;4956192;28;20069;-45
2023/01/22 02:19:00;;;;;;;17.70;7.25;;;;;;;-2.26;76.05;101976.69;4960065;28;20051;-45
2023/01/22 02:24:07;;;;;;;13.80;5.90;;;;;;;-2.44;75.40;101976.94;5060397;28;20857;-45
2023/01/22 02:26:35;;;;;;;12.57;6.03;;;;;;;-2.51;76.16;101978.09;4981800;28;20066;-44
2023/01/22 02:29:03;;;;;;;16.38;6.38;;;;;;;-2.56;75.31;101978.47;4987516;28;20050;-46
2023/01/22 02:31:30;;;;;;;11.10;4.95;;;;;;;-2.61;75.33;101976.47;4993919;28;20070;-46
2023/01/22 02:33:57;;;;;;;14.18;5.20;;;;;;;-2.66;75.28;101977.75;4985396;28;20062;-46
2023/01/22 02:36:24;;;;;;;13.40;5.45;;;;;;;-2.68;75.09;101985.97;5028712;28;20054;-45
2023/01/22 02:38:50;;;;;;;11.75;4.90;;;;;;;-2.70;75.31;101983.31;4987830;28;20046;-45
2023/01/22 02:41:17;;;;;;;14.70;6.47;;;;;;;-2.73;75.62;101986.47;4989069;28;20058;-45
2023/01/22 02:43:44;;;;;;;9.95;4.80;;;;;;;-2.74;75.83;101983.81;4988424;28;20078;-45
2023/01/22 02:46:10;;;;;;;21.08;7.68;;;;;;;-2.75;75.52;101987.13;4986855;28;20074;-46
2023/01/22 02:48:37;;;;;;;19.08;7.05;;;;;;;-2.75;76.13;101992.19;4990975;28;20050;-45
2023/01/22 02:51:04;;;;;;;17.80;7.55;;;;;;;-2.75;75.23;101992.19;4989715;28;20773;-45
2023/01/22 02:53:31;;;;;;;17.80;7.30;;;;;;;-2.75;75.46;101997.25;4984928;28;20042;-44
2023/01/22 02:55:57;;;;;;;20.65;6.45;;;;;;;-2.75;76.07;102002.34;5002090;28;20061;-46
2023/01/22 02:58:24;;;;;;;20.08;6.45;;;;;;;-2.75;75.85;101997.25;4992678;28;20074;-45
2023/01/22 03:00:51;;;;;;;20.42;8.35;;;;;;;-2.76;75.91;102000.56;4990015;28;20080;-46
2023/01/22 03:03:19;;;;;;;19.08;7.40;;;;;;;-2.75;76.27;102008.31;4979321;28;20046;-46
2023/01/22 03:05:49;;;;;;;20.38;7.72;;;;;;;-2.72;75.49;102012.75;4986032;28;20078;-45
2023/01/22 03:08:16;;;;;;;21.75;7.28;;;;;;;-2.73;75.48;102019.44;4974430;28;20163;-45
2023/01/22 03:10:44;;;;;;;20.33;7.95;;;;;;;-2.73;75.83;102011.84;4974790;28;20093;-45
2023/01/22 03:21:30;;;;;;;15.05;6.28;;;;;;;-2.91;75.37;102026.41;5023295;28;20391;-46
2023/01/22 03:23:56;;;;;;;20.08;7.43;;;;;;;-2.94;76.12;102023.63;5001673;28;20066;-44
2023/01/22 03:26:23;;;;;;;15.60;6.60;;;;;;;-2.97;75.83;102024.25;4998608;28;20556;-45
2023/01/22 03:28:50;;;;;;;16.70;6.95;;;;;;;-3.00;75.06;102020.56;5003540;28;20080;-46
2023/01/22 03:31:17;;;;;;;15.10;6.82;;;;;;;-3.02;74.79;102027.16;5003836;28;20046;-45
2023/01/22 03:33:44;;;;;;;16.33;6.68;;;;;;;-3.05;75.15;102037.03;4992793;28;20454;-45
2023/01/22 03:36:13;;;;;;;17.27;6.80;;;;;;;-3.07;75.47;102028.41;5016782;28;20057;-45
2023/01/22 03:38:40;;;;;;;26.08;9.00;;;;;;;-3.11;75.86;102032.31;4965632;28;20125;-45
2023/01/22 03:41:11;;;;;;;31.73;10.35;;;;;;;-3.13;75.26;102032.22;4985226;28;20149;-45
2023/01/22 03:43:38;;;;;;;23.20;8.02;;;;;;;-3.14;74.97;102030.41;4987985;28;20069;-46
2023/01/22 03:46:10;;;;;;;23.10;9.10;;;;;;;-3.14;75.43;102029.56;4991451;28;20042;-45
2023/01/22 03:48:37;;;;;;;22.92;8.10;;;;;;;-3.16;75.15;102019.28;4991484;28;20104;-45
2023/01/22 03:51:20;;;;;;;26.23;9.63;;;;;;;-3.15;75.81;102021.06;4992452;28;20100;-46
2023/01/22 03:53:47;;;;;;;27.20;9.57;;;;;;;-3.13;76.11;102024.63;4989730;28;20065;-45
2023/01/22 03:56:16;;;;;;;24.05;7.60;;;;;;;-3.13;75.40;102014.47;4991635;28;20053;-45
2023/01/22 03:58:43;;;;;;;21.02;7.53;;;;;;;-3.15;75.47;102013.44;4988720;28;20097;-45
2023/01/22 04:01:14;;;;;;;22.35;8.20;;;;;;;-3.17;76.22;102012.44;4989622;28;20149;-45
2023/01/22 04:03:41;;;;;;;17.05;6.95;;;;;;;-3.18;76.11;102005.56;4986623;28;20550;-46
2023/01/22 04:06:10;;;;;;;21.13;7.13;;;;;;;-3.19;75.47;102008.88;4988970;28;20411;-45
2023/01/22 04:08:37;;;;;;;19.83;6.18;;;;;;;-3.22;75.59;101998.47;4995738;28;20136;-46
2023/01/22 04:11:05;;;;;;;19.98;8.30;;;;;;;-3.24;75.46;102005.06;4985933;28;20054;-46
2023/01/22 04:13:33;;;;;;;27.00;8.60;;;;;;;-3.23;75.54;102006.84;4984687;28;20054;-46
2023/01/22 04:16:00;;;;;;;21.10;7.40;;;;;;;-3.27;75.93;102003.13;4994600;28;20554;-45
2023/01/22 04:18:27;;;;;;;17.33;7.10;;;;;;;-3.27;75.25;101999.72;4983183;28;20514;-45
2023/01/22 04:20:54;;;;;;;16.10;6.50;;;;;;;-3.29;75.19;101998.69;4990222;28;20058;-44
2023/01/22 04:23:21;;;;;;;16.70;6.78;;;;;;;-3.33;75.74;101994.13;4980006;28;20085;-44
2023/01/22 04:25:48;;;;;;;20.85;8.77;;;;;;;-3.36;76.17;101998.19;4987288;28;20089;-45
2023/01/22 04:28:15;;;;;;;21.25;7.53;;;;;;;-3.39;76.01;101995.41;4988145;28;20050;-45
2023/01/22 04:30:44;;;;;;;21.38;7.35;;;;;;;-3.42;74.94;101995.13;4996391;28;20490;-45
2023/01/22 04:33:11;;;;;;;16.08;6.82;;;;;;;-3.45;75.49;101993.97;5021184;28;20042;-45
2023/01/22 04:35:38;;;;;;;18.90;9.18;;;;;;;-3.47;75.74;101991.31;5022601;28;20074;-45
2023/01/22 04:38:08;;;;;;;18.33;6.57;;;;;;;-3.49;75.41;102000.41;4988772;28;20051;-44
2023/01/22 04:40:34;;;;;;;19.08;6.63;;;;;;;-3.52;75.23;101997.63;4966710;28;20123;-45
2023/01/22 04:43:03;;;;;;;17.08;7.32;;;;;;;-3.54;75.85;101999.16;4986795;28;20081;-45
2023/01/22 04:45:29;;;;;;;21.55;6.03;;;;;;;-3.58;74.79;101997.09;4983313;28;20054;-45
2023/01/22 04:47:56;;;;;;;15.75;5.95;;;;;;;-3.64;74.61;101993.25;4993893;28;20078;-45
2023/01/22 04:50:26;;;;;;;15.07;7.05;;;;;;;-3.69;75.39;101984.38;4991702;28;20509;-45
2023/01/22 04:52:55;;;;;;;19.77;7.25;;;;;;;-3.73;74.84;101992.47;4982184;28;20049;-45
2023/01/22 04:55:23;;;;;;;16.13;6.78;;;;;;;-3.76;75.15;101987.13;4985259;28;20042;-44
2023/01/22 04:57:52;;;;;;;17.15;7.20;;;;;;;-3.76;74.63;101982.06;4983878;28;20057;-45
2023/01/22 05:00:19;;;;;;;19.50;7.13;;;;;;;-3.77;74.73;101976.16;4997823;28;20112;-44
2023/01/22 05:02:46;;;;;;;22.95;8.70;;;;;;;-3.76;75.61;101977.00;4987784;28;20042;-44
2023/01/22 05:05:13;;;;;;;22.42;8.50;;;;;;;-3.77;75.89;101975.25;4988358;28;20125;-43
2023/01/22 05:07:39;;;;;;;18.73;7.20;;;;;;;-3.82;75.04;101972.31;4990891;28;20050;-45
2023/01/22 05:10:07;;;;;;;17.23;7.97;;;;;;;-3.83;75.58;101974.69;4988847;28;20045;-44
2023/01/22 05:12:33;;;;;;;18.23;6.32;;;;;;;-3.85;75.36;101976.22;4987530;28;20429;-45
2023/01/22 05:15:00;;;;;;;14.40;6.35;;;;;;;-3.89;74.84;101970.88;4993082;28;20045;-44
2023/01/22 05:17:29;;;;;;;20.02;7.55;;;;;;;-3.93;75.67;101978.97;4992279;28;20395;-44
2023/01/22 05:19:56;;;;;;;21.70;7.65;;;;;;;-3.96;74.94;101967.69;4988746;28;20053;-43
2023/01/22 05:22:22;;;;;;;18.52;7.55;;;;;;;-4.00;74.98;101966.53;4996883;28;20576;-44
2023/01/22 05:24:49;;;;;;;24.20;8.88;;;;;;;-4.01;74.96;101965.63;4985544;28;20050;-45
2023/01/22 05:27:15;;;;;;;22.55;5.50;;;;;;;-4.02;74.70;101970.59;4989553;28;20677;-44
2023/01/22 05:29:42;;;;;;;18.83;7.05;;;;;;;-4.06;74.91;101953.34;4991938;28;20042;-44
2023/01/22 05:32:08;;;;;;;13.00;5.88;;;;;;;-4.11;74.73;101952.03;4987923;28;20078;-44
2023/01/22 05:34:35;;;;;;;14.80;7.22;;;;;;;-4.16;75.30;101950.00;4991489;28;20074;-44
2023/01/22 05:37:02;;;;;;;19.65;6.60;;;;;;;-4.19;74.69;101964.03;4984694;28;20074;-43
2023/01/22 05:39:28;;;;;;;16.92;6.88;;;;;;;-4.22;74.74;101967.16;4992565;28;20409;-45
2023/01/22 05:41:55;;;;;;;18.92;8.38;;;;;;;-4.25;75.01;101961.84;4990063;28;20601;-44
2023/01/22 05:44:21;;;;;;;23.50;7.60;;;;;;;-4.26;75.72;101957.53;4985983;28;20043;-44
2023/01/22 05:46:48;;;;;;;15.15;6.07;;;;;;;-4.25;74.61;101954.25;4987171;28;20046;-44
2023/01/22 05:49:15;;;;;;;25.73;8.02;;;;;;;-4.23;75.44;101962.00;4983155;28;20069;-44
2023/01/22 05:51:41;;;;;;;26.15;8.15;;;;;;;-4.23;74.62;101967.91;4980444;28;24543;-44
2023/01/22 05:54:08;;;;;;;25.00;8.20;;;;;;;-4.21;75.71;101971.50;4982299;28;20042;-43
2023/01/22 05:56:34;;;;;;;18.63;7.00;;;;;;;-4.20;75.52;101963.13;4989453;28;20040;-43
2023/01/22 05:59:01;;;;;;;25.00;9.20;;;;;;;-4.18;74.81;101966.72;4995200;28;20069;-44
2023/01/22 06:01:28;;;;;;;23.23;9.43;;;;;;;-4.17;75.75;101976.06;4981933;28;20054;-43
2023/01/22 06:03:54;;;;;;;19.60;7.20;;;;;;;-4.16;74.94;101969.34;4990834;28;20132;-43
2023/01/22 06:06:21;;;;;;;24.63;8.73;;;;;;;-4.18;75.57;101971.78;4992595;28;20050;-44
2023/01/22 06:08:51;;;;;;;25.48;7.38;;;;;;;-4.18;74.97;101976.84;4989514;28;20081;-51
2023/01/22 06:11:17;;;;;;;20.73;6.03;;;;;;;-4.20;74.81;101973.25;5007398;28;20499;-44
2023/01/22 06:13:45;;;;;;;16.40;6.53;;;;;;;-4.19;75.13;101975.03;4981811;28;20573;-44
2023/01/22 06:16:11;;;;;;;20.20;6.85;;;;;;;-4.21;75.32;101976.56;4984197;28;20125;-44
2023/01/22 06:18:38;;;;;;;21.08;7.68;;;;;;;-4.21;75.71;101973.13;4990821;28;20057;-45
2023/01/22 06:21:06;;;;;;;23.05;7.68;;;;;;;-4.21;74.79;101974.03;4992431;28;20731;-44
2023/01/22 06:23:33;;;;;;;21.00;8.30;;;;;;;-4.21;74.97;101981.63;4978178;28;20050;-44
2023/01/22 06:26:01;;;;;;;22.88;7.25;;;;;;;-4.21;74.91;101979.09;4983421;28;20069;-43
2023/01/22 06:28:28;;;;;;;15.82;6.55;;;;;;;-4.19;74.93;101969.97;4999296;28;20140;-44
2023/01/22 06:30:58;;;;;;;20.65;6.97;;;;;;;-4.19;75.81;101974.16;4991618;28;20576;-45
2023/01/22 06:33:24;;;;;;;16.98;6.82;;;;;;;-4.20;75.21;101963.13;4985262;28;20453;-44
2023/01/22 06:35:53;;;;;;;18.45;6.55;;;;;;;-4.18;74.84;101971.78;4989856;28;20140;-43
2023/01/22 06:38:21;;;;;;;15.23;6.05;;;;;;;-4.15;75.20;101972.00;4985415;28;20096;-45
2023/01/22 06:40:52;;;;;;;17.15;5.53;;;;;;;-4.08;75.51;101967.50;4985299;28;20100;-44
2023/01/22 06:43:19;;;;;;;20.35;7.28;;;;;;;-4.05;76.16;101962.72;5014894;28;20069;-44
2023/01/22 06:45:45;;;;;;;25.92;7.20;;;;;;;-4.02;76.30;101966.38;4986142;28;20718;-43
2023/01/22 06:48:12;;;;;;;18.88;6.68;;;;;;;-4.00;76.09;101967.44;4989118;28;20073;-45
2023/01/22 06:50:39;;;;;;;14.52;6.35;;;;;;;-3.98;75.78;101970.09;4996996;28;20123;-43
2023/01/22 06:53:06;;;;;;;15.43;6.85;;;;;;;-3.96;75.54;101975.31;4992177;28;20074;-45
2023/01/22 06:55:32;;;;;;;20.75;7.82;;;;;;;-3.99;75.85;101965.75;4985492;28;20054;-43
2023/01/22 06:57:59;;;;;;;21.48;6.95;;;;;;;-4.02;75.39;101968.06;4981560;28;20054;-44
2023/01/22 07:00:26;;;;;;;18.55;8.15;;;;;;;-4.04;75.09;101964.47;4993456;28;20101;-44
2023/01/22 07:02:53;;;;;;;38.17;11.10;;;;;;;-4.03;75.15;101963.72;4986608;28;20125;-43
2023/01/22 07:05:20;;;;;;;32.35;10.05;;;;;;;-4.00;76.21;101962.38;4993712;28;20108;-45
2023/01/22 07:07:53;;;;;;;27.90;7.63;;;;;;;-3.98;76.00;101972.63;4986648;28;20039;-46
2023/01/22 07:10:20;;;;;;;15.85;6.72;;;;;;;-3.92;76.75;101965.56;5030721;28;20081;-45
2023/01/22 07:12:48;;;;;;;19.33;6.70;;;;;;;-3.84;75.73;101971.28;4986523;28;20143;-44
2023/01/22 07:15:15;;;;;;;16.50;6.28;;;;;;;-3.75;77.18;101971.22;4980027;28;20138;-44
2023/01/22 07:17:42;;;;;;;17.42;6.20;;;;;;;-3.66;76.43;101977.06;4986715;28;20461;-45
2023/01/22 07:20:09;;;;;;;18.60;6.78;;;;;;;-3.58;76.56;101984.44;4992515;28;20517;-44
2023/01/22 07:22:35;;;;;;;18.10;6.95;;;;;;;-3.53;76.99;101980.66;4986808;28;20038;-44
2023/01/22 07:25:02;;;;;;;20.15;7.38;;;;;;;-3.53;76.77;101983.19;4989896;28;20047;-44
2023/01/22 07:27:31;;;;;;;20.40;7.78;;;;;;;-3.54;77.08;101978.88;4988688;28;20050;-45
2023/01/22 07:29:58;;;;;;;24.33;9.02;;;;;;;-3.57;76.41;101978.59;4987524;28;20057;-44
2023/01/22 07:32:24;;;;;;;17.08;7.03;;;;;;;-3.57;76.88;101988.75;4992430;28;20081;-44
2023/01/22 07:34:51;;;;;;;16.42;6.40;;;;;;;-3.55;76.46;101990.66;4989016;28;20050;-44
2023/01/22 07:37:17;;;;;;;14.80;5.90;;;;;;;-3.52;76.45;101990.00;4994543;28;20050;-44
2023/01/22 07:39:44;;;;;;;14.85;5.05;;;;;;;-3.43;76.29;101990.81;4988074;28;20100;-43
2023/01/22 07:42:12;;;;;;;19.33;7.10;;;;;;;-3.37;77.39;101993.84;4987177;28;20058;-44
2023/01/22 07:44:39;;;;;;;18.58;5.90;;;;;;;-3.30;77.13;101999.47;5001580;28;20678;-45
2023/01/22 07:47:06;;;;;;;16.80;5.30;;;;;;;-3.28;77.66;101992.91;4983776;28;20045;-44
2023/01/22 07:49:33;;;;;;;17.52;7.40;;;;;;;-3.25;76.70;102003.28;4983096;28;21349;-45
2023/01/22 07:51:59;;;;;;;17.15;6.40;;;;;;;-3.23;77.35;102006.84;4985924;28;20085;-44
2023/01/22 07:54:26;;;;;;;19.67;6.68;;;;;;;-3.19;77.62;102002.91;4985333;28;20550;-43
2023/01/22 07:56:52;;;;;;;18.40;6.50;;;;;;;-3.18;76.46;102005.56;4986208;28;20606;-44
2023/01/22 07:59:19;;;;;;;17.55;6.63;;;;;;;-3.18;77.51;102005.56;4985233;28;20046;-44
2023/01/22 08:01:45;;;;;;;21.05;7.85;;;;;;;-3.15;77.18;102010.00;4985479;28;20046;-44
2023/01/22 08:04:12;;;;;;;18.25;7.50;;;;;;;-3.16;77.37;102014.22;4984394;28;20046;-44
2023/01/22 08:06:39;;;;;;;19.83;8.77;;;;;;;-3.15;76.52;102015.06;4984834;28;20070;-44
2023/01/22 08:09:05;;;;;;;18.73;7.15;;;;;;;-3.14;76.49;102007.59;4985116;28;20050;-44
2023/01/22 08:11:32;;;;;;;22.77;7.20;;;;;;;-3.08;77.25;102011.44;4980784;28;20109;-45
2023/01/22 08:13:59;;;;;;;30.05;8.25;;;;;;;-3.00;76.72;102012.97;4986049;28;20078;-43
2023/01/22 08:16:25;;;;;;;25.10;8.52;;;;;;;-2.91;76.87;102015.41;4982351;28;20106;-44
2023/01/22 08:18:52;;;;;;;24.05;9.43;;;;;;;-2.75;76.79;101998.16;4985602;28;20065;-44
2023/01/22 08:21:19;;;;;;;23.50;8.45;;;;;;;-2.49;76.40;102003.59;4972838;28;20797;-44
2023/01/22 08:23:46;;;;;;;18.42;9.65;;;;;;;-2.25;77.27;101996.22;4973293;28;20085;-44
2023/01/22 08:26:14;;;;;;;23.77;8.50;;;;;;;-2.00;77.46;101988.91;4983068;28;20047;-45
2023/01/22 08:28:41;;;;;;;25.45;9.15;;;;;;;-1.68;77.65;101992.25;4983886;28;20104;-45
2023/01/22 08:31:08;;;;;;;25.65;8.07;;;;;;;-1.33;77.06;101994.09;4982174;28;20414;-46
2023/01/22 08:33:48;;;;;;;13.95;6.28;;;;;;;-0.91;76.48;102002.34;4982985;28;20120;-46
2023/01/22 08:36:14;;;;;;;17.92;6.55;;;;;;;-0.65;76.55;102005.06;4983187;28;20108;-45
2023/01/22 08:38:41;;;;;;;27.02;7.68;;;;;;;-0.21;76.36;102003.19;4978527;28;21413;-46
2023/01/22 08:41:07;;;;;;;19.52;7.97;;;;;;;0.36;75.35;102006.34;4979999;28;20050;-45
2023/01/22 08:43:34;;;;;;;25.13;9.25;;;;;;;0.99;74.76;102009.84;4981232;28;20068;-45
2023/01/22 08:46:01;;;;;;;26.73;8.90;;;;;;;1.61;74.66;102013.06;4982761;28;20046;-46
2023/01/22 08:48:27;;;;;;;23.45;7.57;;;;;;;2.10;74.08;102016.13;4983477;28;20056;-45
2023/01/22 08:50:54;;;;;;;18.10;8.07;;;;;;;2.43;74.07;102024.16;4981858;28;20136;-46
2023/01/22 08:53:20;;;;;;;24.20;8.85;;;;;;;2.86;74.08;102025.03;4982372;28;20042;-47
2023/01/22 08:55:48;;;;;;;20.05;6.43;;;;;;;3.47;73.81;102032.06;4977379;28;20062;-46
2023/01/22 08:58:15;;;;;;;17.98;7.22;;;;;;;4.11;73.05;102023.72;4983857;28;20186;-46
2023/01/22 09:00:43;;;;;;;20.90;7.97;;;;;;;4.81;71.79;102034.31;4982007;28;20065;-47
2023/01/22 09:03:10;;;;;;;18.88;7.13;;;;;;;5.56;72.88;102032.06;4982331;28;20050;-47
2023/01/22 09:05:38;;;;;;;16.58;6.55;;;;;;;6.16;71.34;102032.47;4985105;28;20093;-45
2023/01/22 09:08:06;;;;;;;15.75;7.07;;;;;;;6.65;71.65;102027.81;4982582;28;20050;-46
2023/01/22 09:10:34;;;;;;;15.35;6.28;;;;;;;7.20;70.44;102028.47;4980737;28;20057;-46
2023/01/22 09:13:00;;;;;;;14.43;6.07;;;;;;;7.72;70.27;102026.34;4979094;28;20074;-47
2023/01/22 09:15:27;;;;;;;14.52;5.88;;;;;;;8.20;69.05;102022.19;4982446;28;20384;-47
2023/01/22 09:17:54;;;;;;;14.32;6.78;;;;;;;8.65;68.50;102025.63;4982264;28;20054;-47
2023/01/22 09:20:20;;;;;;;15.88;6.43;;;;;;;8.99;67.89;102026.84;4981783;28;20077;-47
2023/01/22 09:22:48;;;;;;;12.98;5.20;;;;;;;9.09;67.54;102032.38;4983537;28;20145;-47
2023/01/22 09:25:15;;;;;;;15.15;4.88;;;;;;;9.14;67.53;102028.22;4987251;28;20054;-47
2023/01/22 09:27:42;;;;;;;12.50;5.38;;;;;;;9.13;67.63;102029.06;4984237;28;20069;-48
2023/01/22 09:30:10;;;;;;;10.48;5.00;;;;;;;9.39;68.40;102037.72;4984796;28;20054;-51
2023/01/22 09:32:36;;;;;;;11.40;5.65;;;;;;;9.91;68.23;102031.63;4985624;28;20046;-48
2023/01/22 09:35:03;;;;;;;11.05;5.05;;;;;;;10.50;66.21;102030.84;4980617;28;20065;-47
2023/01/22 09:37:30;;;;;;;9.63;5.13;;;;;;;11.09;64.90;102035.94;4982517;28;20514;-48
2023/01/22 09:39:57;;;;;;;9.50;4.88;;;;;;;11.55;64.62;102044.91;4978802;28;20078;-49
2023/01/22 09:42:33;;;;;;;13.07;5.75;;;;;;;11.97;63.30;102042.47;4987169;28;20474;-47
2023/01/22 09:45:05;;;;;;;10.20;5.03;;;;;;;12.07;61.42;102034.09;4985844;28;20710;-50
2023/01/22 09:50:17;;;;;;;10.52;5.55;;;;;;;11.55;60.18;102044.91;5067928;27;20196;-47
2023/01/22 09:52:45;;;;;;;10.43;5.68;;;;;;;11.13;61.58;102045.56;5075329;28;20052;-49
2023/01/22 09:55:14;;;;;;;9.70;4.85;;;;;;;10.67;60.06;102041.72;5062692;28;20136;-47
2023/01/22 09:57:45;;;;;;;10.95;5.80;;;;;;;10.24;61.19;102040.41;5057815;28;20040;-48
2023/01/22 10:00:18;;;;;;;13.13;6.07;;;;;;;9.92;61.49;102043.72;5072539;28;20127;-48
2023/01/22 10:05:47;;;;;;;10.77;5.43;;;;;;;9.40;61.45;102038.59;5044768;27;20398;-46
2023/01/22 10:08:19;;;;;;;11.73;4.78;;;;;;;9.24;61.93;102045.81;5032681;28;20139;-48
2023/01/22 10:10:47;;;;;;;11.30;4.60;;;;;;;9.06;61.11;102032.25;5030122;28;20111;-48
2023/01/22 10:13:35;;;;;;;9.80;3.70;;;;;;;8.55;59.65;102028.69;5045359;28;20527;-48
2023/01/22 10:16:02;;;;;;;8.75;4.05;;;;;;;8.19;60.56;102025.63;5054271;28;20048;-47
2023/01/22 10:19:00;;;;;;;9.50;4.32;;;;;;;7.75;61.39;102027.28;5063191;28;20664;-47
2023/01/22 10:21:30;;;;;;;9.23;3.97;;;;;;;7.32;61.02;102014.34;5052983;28;20049;-47
2023/01/22 10:23:57;;;;;;;10.02;4.13;;;;;;;6.90;61.79;102023.78;5036321;28;20496;-47
2023/01/22 10:29:08;;;;;;;10.68;4.90;;;;;;;6.20;63.13;102022.28;5032210;28;20401;-48
2023/01/22 10:31:39;;;;;;;11.18;4.10;;;;;;;5.88;63.11;102020.78;5001121;28;20096;-49
2023/01/22 10:36:52;;;;;;;13.13;5.65;;;;;;;5.11;62.97;102011.03;5083760;27;20396;-46
2023/01/22 10:39:20;;;;;;;16.35;6.90;;;;;;;4.87;64.26;102014.06;5044384;28;20083;-48
2023/01/22 10:41:47;;;;;;;12.48;6.80;;;;;;;4.62;64.10;102017.03;5038321;28;20046;-46
2023/01/22 10:46:52;;;;;;;14.40;7.07;;;;;;;4.34;64.65;102026.69;5032981;27;20402;-47
2023/01/22 10:49:23;;;;;;;17.02;7.32;;;;;;;4.22;65.13;102031.16;4995408;28;20058;-48
2023/01/22 10:51:55;;;;;;;13.05;6.80;;;;;;;4.14;66.06;102032.38;5006610;28;20053;-47
2023/01/22 10:57:21;;;;;;;10.25;4.57;;;;;;;3.96;66.26;102043.38;5056878;28;20385;-47
2023/01/22 10:59:49;;;;;;;10.35;4.18;;;;;;;3.86;66.51;102037.72;5030947;28;20054;-47
2023/01/22 11:02:22;;;;;;;12.18;4.40;;;;;;;3.82;66.59;102038.34;5026068;28;20083;-46
2023/01/22 11:04:49;;;;;;;15.55;5.68;;;;;;;3.76;66.89;102040.56;5028231;28;20045;-46
2023/01/22 11:07:21;;;;;;;15.13;5.75;;;;;;;3.63;67.37;102035.53;5031639;28;20073;-47
2023/01/22 11:10:15;;;;;;;14.40;6.15;;;;;;;3.49;67.17;102032.16;5030930;28;20051;-46
2023/01/22 11:12:50;;;;;;;10.77;4.78;;;;;;;3.40;67.70;102041.06;5018095;28;20077;-44
2023/01/22 11:15:30;;;;;;;15.63;6.10;;;;;;;3.26;67.46;102026.56;5026445;28;20481;-46
2023/01/22 11:18:00;;;;;;;15.73;5.68;;;;;;;3.26;67.88;102036.81;5014941;28;20112;-45
2023/01/22 11:20:44;;;;;;;17.52;6.45;;;;;;;3.21;67.44;102028.88;5008530;28;20073;-46
2023/01/22 11:28:57;;;;;;;14.77;5.55;;;;;;;3.08;68.46;102028.09;5054221;27;20405;-45
2023/01/22 11:34:27;;;;;;;15.32;5.65;;;;;;;3.10;68.58;102029.91;5061460;27;20425;-45
2023/01/22 11:46:08;;;;;;;17.60;6.70;;;;;;;3.11;68.33;102027.44;5051309;28;20383;-45
2023/01/22 12:25:11;;;;;;;16.67;6.05;;;;;;;3.34;69.92;102025.34;5025097;28;20406;-45
2023/01/22 12:27:46;;;;;;;19.17;6.20;;;;;;;3.42;69.45;102018.09;4999288;28;20046;-46
2023/01/22 12:32:57;;;;;;;15.70;6.95;;;;;;;3.54;69.61;102011.13;5097418;27;20389;-45
2023/01/22 12:35:27;;;;;;;14.65;6.35;;;;;;;3.59;69.76;102012.28;5097571;28;20047;-47
2023/01/22 12:38:19;;;;;;;14.75;6.38;;;;;;;3.62;69.63;102005.56;5097160;28;20579;-46
2023/01/22 12:43:53;;;;;;;12.45;5.10;;;;;;;3.73;69.16;102010.53;5069134;27;20404;-47
2023/01/22 12:49:17;;;;;;;11.70;4.47;;;;;;;3.78;69.43;101982.56;5032088;28;20425;-48
2023/01/22 12:51:49;;;;;;;12.48;3.90;;;;;;;3.77;69.01;101978.25;5016294;28;20152;-46
2023/01/22 12:57:09;;;;;;;12.85;6.18;;;;;;;3.67;69.16;101973.38;5024451;28;20398;-45